Time;durP1;ratioP1;P1;durP2;ratioP2;P2;SDS_P1;SDS_P2;PMS_P1;PMS_P2;Temp;Humidity;BMP_temperature;BMP_pressure;BME280_temperature;BME280_humidity;BME280_pressure;Samples;Min_cycle;Max_cycle;Signal;HPM_P1;HPM_P2
2020/12/12 00:01:17;;;;;;;14.23;6.70;;;5.50;1.00;;;;;;5076224;28;20195;-73
2020/12/12 00:03:43;;;;;;;14.90;6.30;;;5.60;1.00;;;;;;5076291;28;20420;-74
2020/12/12 00:06:09;;;;;;;11.37;6.20;;;5.50;1.00;;;;;;5077467;28;20195;-74
2020/12/12 00:08:36;;;;;;;16.93;8.00;;;5.50;1.00;;;;;;5076092;28;20171;-73
2020/12/12 00:11:03;;;;;;;14.73;7.03;;;5.50;1.00;;;;;;5076227;28;20161;-74
2020/12/12 00:13:29;;;;;;;14.70;6.90;;;5.50;1.00;;;;;;5076265;28;20540;-74
2020/12/12 00:15:57;;;;;;;19.60;7.33;;;5.60;1.00;;;;;;5091001;28;20404;-73
2020/12/12 00:18:23;;;;;;;20.48;7.80;;;5.60;1.00;;;;;;5096311;28;20151;-74
2020/12/12 00:20:48;;;;;;;17.37;7.10;;;5.60;1.00;;;;;;5077612;28;20249;-73
2020/12/12 00:23:14;;;;;;;15.27;7.17;;;5.70;1.00;;;;;;5095686;28;20167;-76
2020/12/12 00:26:09;;;;;;;14.50;6.10;;;5.70;1.00;;;;;;5081967;28;20175;-76
2020/12/12 00:28:45;;;;;;;17.23;7.37;;;5.70;1.00;;;;;;5076293;28;20163;-76
2020/12/12 00:31:27;;;;;;;13.07;6.97;;;5.70;1.00;;;;;;5074806;28;20832;-76
2020/12/12 00:37:44;;;;;;;16.90;7.07;;;5.70;1.00;;;;;;5095936;28;20470;-76
2020/12/12 00:40:21;;;;;;;15.50;6.57;;;5.60;1.00;;;;;;5089931;28;20452;-76
2020/12/12 00:43:09;;;;;;;17.20;7.50;;;5.60;1.00;;;;;;5075968;28;20390;-76
2020/12/12 00:46:03;;;;;;;15.17;7.27;;;5.60;1.00;;;;;;5075740;28;20394;-76
2020/12/12 00:48:28;;;;;;;17.60;7.30;;;5.70;1.00;;;;;;5078218;28;20416;-76
2020/12/12 00:51:21;;;;;;;19.00;6.50;;;5.70;1.00;;;;;;5075781;28;20413;-76
2020/12/12 00:53:51;;;;;;;13.30;7.00;;;5.70;1.00;;;;;;5082397;28;20404;-74
2020/12/12 00:56:18;;;;;;;16.50;7.17;;;5.60;1.00;;;;;;5095504;28;20399;-74
2020/12/12 00:58:44;;;;;;;21.92;7.82;;;5.70;1.00;;;;;;5087256;28;20401;-74
2020/12/12 01:01:14;;;;;;;16.67;7.38;;;5.70;1.00;;;;;;5075835;28;20556;-74
2020/12/12 01:03:46;;;;;;;18.50;7.70;;;5.80;1.00;;;;;;5090742;28;20517;-74
2020/12/12 01:06:19;;;;;;;15.00;7.43;;;5.80;1.00;;;;;;5081475;28;20259;-74
2020/12/12 01:08:46;;;;;;;17.37;6.33;;;5.70;1.00;;;;;;5095845;28;20389;-76
2020/12/12 01:11:21;;;;;;;15.90;6.93;;;5.80;1.00;;;;;;5075685;28;20508;-76
2020/12/12 01:17:21;;;;;;;23.98;7.13;;;5.80;1.00;;;;;;5075601;28;20412;-76
2020/12/12 01:19:51;;;;;;;17.13;7.82;;;5.70;1.00;;;;;;5075212;28;20155;-76
2020/12/12 01:22:21;;;;;;;17.00;7.70;;;5.70;1.00;;;;;;5074645;28;20175;-76
2020/12/12 01:25:21;;;;;;;20.00;8.10;;;5.70;1.00;;;;;;5074823;28;20709;-76
2020/12/12 01:28:09;;;;;;;19.08;7.25;;;5.70;1.00;;;;;;5074604;28;20210;-76
2020/12/12 01:31:14;;;;;;;15.90;7.40;;;5.80;1.00;;;;;;5092927;28;20171;-76
2020/12/12 01:33:57;;;;;;;23.67;7.88;;;5.70;1.00;;;;;;5095239;28;20395;-76
2020/12/12 01:36:22;;;;;;;13.55;6.60;;;5.70;1.00;;;;;;5094587;28;20639;-76
2020/12/12 01:38:51;;;;;;;19.00;7.60;;;5.70;1.00;;;;;;5094669;28;20166;-74
2020/12/12 01:41:22;;;;;;;19.70;7.90;;;5.70;1.00;;;;;;5094792;28;20602;-74
2020/12/12 01:43:51;;;;;;;16.97;7.33;;;5.80;1.00;;;;;;5078858;28;20417;-74
2020/12/12 01:46:27;;;;;;;18.67;7.03;;;5.80;1.00;;;;;;5074287;28;20429;-74
2020/12/12 01:48:55;;;;;;;11.97;6.80;;;5.80;1.00;;;;;;5088565;28;20400;-74
2020/12/12 01:51:25;;;;;;;18.50;7.00;;;5.90;1.00;;;;;;5094172;28;20498;-74
2020/12/12 01:54:27;;;;;;;16.87;6.40;;;5.90;1.00;;;;;;5083494;28;20405;-76
2020/12/12 02:00:15;;;;;;;15.13;6.53;;;5.90;1.00;;;;;;5073874;28;20400;-76
2020/12/12 02:03:03;;;;;;;17.70;6.97;;;5.90;1.00;;;;;;5073869;28;20437;-76
2020/12/12 02:08:57;;;;;;;19.58;7.13;;;5.90;1.00;;;;;;5074522;28;20240;-76
2020/12/12 02:11:27;;;;;;;16.27;6.85;;;5.90;1.00;;;;;;5074659;28;20175;-76
2020/12/12 02:14:27;;;;;;;14.53;6.60;;;5.80;1.00;;;;;;5074151;28;20170;-76
2020/12/12 02:17:04;;;;;;;16.60;6.50;;;5.80;1.00;;;;;;5074269;28;20485;-76
2020/12/12 02:19:34;;;;;;;12.63;5.93;;;5.90;1.00;;;;;;5073667;28;20910;-76
2020/12/12 02:22:06;;;;;;;23.42;7.85;;;6.00;1.00;;;;;;5094151;28;20201;-77
2020/12/12 02:24:34;;;;;;;16.90;7.25;;;5.90;1.00;;;;;;5086135;28;20280;-76
2020/12/12 02:27:04;;;;;;;12.90;6.40;;;5.90;1.00;;;;;;5080516;28;20665;-76
2020/12/12 02:29:57;;;;;;;23.13;8.20;;;5.90;1.00;;;;;;5093959;28;20418;-76
2020/12/12 02:32:45;;;;;;;16.67;7.32;;;5.90;1.00;;;;;;5094192;28;20159;-76
2020/12/12 02:38:32;;;;;;;18.47;6.93;;;5.90;1.00;;;;;;5082330;28;21733;-73
2020/12/12 02:40:58;;;;;;;16.97;7.23;;;5.90;1.00;;;;;;5086496;28;20416;-73
2020/12/12 02:43:27;;;;;;;17.37;6.80;;;5.90;1.00;;;;;;5093890;28;20540;-74
2020/12/12 02:45:57;;;;;;;12.30;6.30;;;5.90;1.00;;;;;;5082689;28;20629;-74
2020/12/12 02:48:28;;;;;;;14.83;7.07;;;5.90;1.00;;;;;;5073627;28;20588;-74
2020/12/12 02:50:57;;;;;;;17.85;8.50;;;5.90;1.00;;;;;;5073523;28;20393;-74
2020/12/12 02:53:51;;;;;;;17.70;6.57;;;5.90;1.00;;;;;;5074755;28;20213;-77
2020/12/12 02:56:28;;;;;;;16.65;7.10;;;6.00;1.00;;;;;;5078520;28;20747;-76
2020/12/12 02:59:09;;;;;;;16.27;7.07;;;6.00;1.00;;;;;;5073282;28;20519;-76
2020/12/12 03:02:27;;;;;;;19.07;7.13;;;6.00;1.00;;;;;;5077751;28;20421;-76
2020/12/12 03:08:14;;;;;;;17.00;7.10;;;6.00;1.00;;;;;;5077554;28;20518;-76
2020/12/12 03:17:24;;;;;;;18.23;7.90;;;5.90;1.00;;;;;;5077075;28;20411;-77
2020/12/12 03:19:51;;;;;;;16.77;8.40;;;5.90;1.00;;;;;;5080015;28;20985;-77
2020/12/12 03:22:51;;;;;;;23.90;7.90;;;5.90;1.00;;;;;;5080669;28;20163;-76
2020/12/12 03:25:21;;;;;;;17.23;8.13;;;5.90;1.00;;;;;;5076959;28;20390;-74
2020/12/12 03:27:47;;;;;;;19.35;8.00;;;5.90;1.00;;;;;;5076772;28;20536;-74
2020/12/12 03:30:15;;;;;;;19.93;8.67;;;5.90;1.00;;;;;;5076655;28;20254;-73
2020/12/12 03:32:41;;;;;;;18.80;8.63;;;5.90;1.00;;;;;;5076686;28;20171;-74
2020/12/12 03:35:09;;;;;;;16.53;7.90;;;5.90;1.00;;;;;;5076847;28;20243;-74
2020/12/12 03:37:35;;;;;;;17.02;7.68;;;5.90;1.00;;;;;;5082909;28;20178;-74
2020/12/12 03:40:02;;;;;;;14.07;7.30;;;5.90;1.00;;;;;;5085082;28;20520;-74
2020/12/12 03:42:39;;;;;;;15.80;8.00;;;5.90;1.00;;;;;;5076630;28;20159;-73
2020/12/12 03:45:15;;;;;;;18.73;7.90;;;6.00;1.00;;;;;;5076374;28;20186;-74
2020/12/12 03:47:41;;;;;;;15.50;7.38;;;6.00;1.00;;;;;;5076578;28;20750;-74
2020/12/12 03:50:09;;;;;;;19.20;8.23;;;5.90;1.00;;;;;;5076587;28;20178;-74
2020/12/12 03:52:39;;;;;;;15.90;7.50;;;5.90;1.00;;;;;;5076365;28;20570;-74
2020/12/12 03:55:33;;;;;;;14.83;7.83;;;6.00;1.00;;;;;;5076698;28;20479;-76
2020/12/12 03:58:27;;;;;;;21.87;7.97;;;6.00;1.00;;;;;;5076897;28;20390;-76
2020/12/12 04:04:15;;;;;;;19.47;7.20;;;6.00;1.00;;;;;;5076509;28;20416;-76
2020/12/12 04:06:51;;;;;;;15.63;6.37;;;6.00;1.00;;;;;;5080536;28;20565;-76
2020/12/12 04:09:33;;;;;;;20.50;8.33;;;6.00;1.00;;;;;;5076448;28;20496;-76
2020/12/12 04:12:27;;;;;;;18.83;8.33;;;6.00;1.00;;;;;;5075729;28;20744;-76
2020/12/12 04:14:57;;;;;;;18.02;7.70;;;5.90;1.00;;;;;;5076371;28;20476;-77
2020/12/12 04:17:23;;;;;;;19.20;7.60;;;5.90;1.00;;;;;;5082705;28;20181;-77
2020/12/12 04:19:51;;;;;;;17.40;8.30;;;6.00;1.00;;;;;;5075897;28;20417;-77
2020/12/12 04:26:15;;;;;;;21.70;7.70;;;6.00;1.00;;;;;;5088380;28;20188;-77
2020/12/12 04:29:03;;;;;;;26.33;8.93;;;5.90;1.00;;;;;;5096457;28;20483;-76
2020/12/12 04:31:33;;;;;;;17.17;7.13;;;5.90;1.00;;;;;;5096129;28;20399;-77
2020/12/12 04:34:09;;;;;;;17.27;7.97;;;5.90;1.00;;;;;;5096241;28;20407;-77
2020/12/12 04:36:35;;;;;;;23.37;9.07;;;5.90;1.00;;;;;;5081392;28;20421;-76
2020/12/12 04:39:27;;;;;;;23.90;8.93;;;5.90;1.00;;;;;;5076313;28;20390;-76
2020/12/12 04:42:13;;;;;;;20.37;7.80;;;5.90;1.00;;;;;;5075521;28;20178;-76
2020/12/12 04:45:04;;;;;;;22.20;8.35;;;5.90;1.00;;;;;;5090687;28;20446;-76
2020/12/12 04:47:44;;;;;;;22.45;8.75;;;5.90;1.00;;;;;;5075237;28;20234;-77
2020/12/12 04:50:10;;;;;;;19.33;8.07;;;6.00;1.00;;;;;;5075827;28;20148;-76
2020/12/12 04:52:45;;;;;;;20.77;8.10;;;6.00;1.00;;;;;;5075517;28;20765;-77
2020/12/12 04:58:40;;;;;;;17.80;7.20;;;5.90;1.00;;;;;;5076241;28;20229;-77
2020/12/12 05:04:33;;;;;;;17.98;7.30;;;6.00;1.00;;;;;;5095273;28;20216;-76
2020/12/12 05:07:15;;;;;;;23.83;9.70;;;6.00;1.00;;;;;;5085603;28;20191;-78
2020/12/12 05:09:45;;;;;;;18.57;7.40;;;6.10;1.00;;;;;;5079325;28;20182;-74
2020/12/12 05:12:15;;;;;;;26.97;9.13;;;6.10;1.00;;;;;;5075069;28;20959;-74
2020/12/12 05:14:46;;;;;;;17.30;8.50;;;6.10;1.00;;;;;;5074788;28;20409;-74
2020/12/12 05:17:14;;;;;;;18.67;7.33;;;6.10;1.00;;;;;;5074981;28;20400;-73
2020/12/12 05:19:48;;;;;;;18.80;7.30;;;6.10;1.00;;;;;;5074830;28;20485;-74
2020/12/12 05:22:16;;;;;;;17.50;8.10;;;6.10;1.00;;;;;;5080093;28;20916;-74
2020/12/12 05:24:45;;;;;;;25.27;9.10;;;6.10;1.00;;;;;;5092930;28;20424;-73
2020/12/12 05:27:11;;;;;;;20.57;8.90;;;6.10;1.00;;;;;;5079935;28;20198;-74
2020/12/12 05:29:37;;;;;;;21.83;8.43;;;6.10;1.00;;;;;;5078049;28;20408;-74
2020/12/12 05:32:03;;;;;;;20.27;8.73;;;6.10;1.00;;;;;;5083125;28;20428;-74
2020/12/12 05:34:29;;;;;;;20.77;9.30;;;8.40;1.00;;;;;;5074590;28;20409;-74
2020/12/12 05:36:55;;;;;;;20.03;8.60;;;6.10;1.00;;;;;;5078885;28;20432;-74
2020/12/12 05:39:22;;;;;;;25.40;8.60;;;6.10;1.00;;;;;;5074863;28;20521;-76
2020/12/12 05:42:35;;;;;;;19.37;7.93;;;6.10;1.00;;;;;;5082315;28;21067;-76
2020/12/12 05:45:05;;;;;;;20.87;8.70;;;6.10;1.00;;;;;;5091133;28;20434;-76
2020/12/12 05:50:57;;;;;;;18.00;6.90;;;6.20;1.00;;;;;;5092950;28;20513;-76
2020/12/12 05:53:34;;;;;;;16.10;7.77;;;6.20;1.00;;;;;;5075112;28;20963;-76
2020/12/12 05:59:45;;;;;;;12.40;6.00;;;6.10;1.00;;;;;;5074656;28;20428;-76
2020/12/12 06:02:14;;;;;;;13.63;7.07;;;6.20;1.00;;;;;;5074919;28;20620;-76
2020/12/12 06:04:53;;;;;;;16.40;7.57;;;6.20;1.00;;;;;;5074414;28;20468;-76
2020/12/12 06:07:30;;;;;;;25.70;9.27;;;6.10;1.00;;;;;;5089125;28;20478;-76
2020/12/12 06:10:13;;;;;;;21.17;8.20;;;6.20;1.00;;;;;;5089933;28;20409;-73
2020/12/12 06:12:40;;;;;;;16.73;8.00;;;6.20;1.00;;;;;;5074591;28;20914;-74
2020/12/12 06:15:11;;;;;;;24.02;8.73;;;6.10;1.00;;;;;;5073746;28;20502;-74
2020/12/12 06:18:04;;;;;;;18.90;8.40;;;6.10;1.00;;;;;;5081364;28;20222;-74
2020/12/12 06:20:31;;;;;;;21.23;8.70;;;6.10;1.00;;;;;;5093787;28;20424;-74
2020/12/12 06:22:59;;;;;;;16.20;8.10;;;6.10;1.00;;;;;;5093950;28;20450;-74
2020/12/12 06:26:10;;;;;;;20.00;8.70;;;6.10;1.00;;;;;;5094467;28;20432;-76
2020/12/12 06:28:54;;;;;;;19.27;8.17;;;6.10;1.00;;;;;;5074092;28;20468;-76
2020/12/12 06:31:39;;;;;;;22.20;8.53;;;6.10;1.00;;;;;;5073815;28;20458;-76
2020/12/12 06:34:53;;;;;;;23.60;8.93;;;6.00;1.00;;;;;;5073286;28;20389;-78
2020/12/12 06:40:40;;;;;;;22.00;8.07;;;6.10;1.00;;;;;;5076758;28;20897;-76
2020/12/12 06:43:31;;;;;;;30.80;9.70;;;6.00;1.00;;;;;;5086929;28;20402;-76
2020/12/12 06:46:18;;;;;;;18.03;8.33;;;6.10;1.00;;;;;;5051452;28;20278;-76
2020/12/12 06:49:27;;;;;;;22.23;8.80;;;6.10;1.00;;;;;;5071141;28;20449;-76
2020/12/12 06:52:04;;;;;;;17.53;7.93;;;6.10;1.00;;;;;;5069778;28;20428;-76
2020/12/12 06:55:21;;;;;;;22.23;8.60;;;6.00;1.00;;;;;;5051701;28;20493;-76
2020/12/12 06:57:48;;;;;;;21.20;9.83;;;6.10;1.00;;;;;;5070972;28;20957;-76
2020/12/12 07:00:33;;;;;;;23.40;9.33;;;6.10;1.00;;;;;;5071047;28;20433;-75
2020/12/12 07:03:21;;;;;;;21.20;7.70;;;6.10;1.00;;;;;;5056163;28;20484;-75
2020/12/12 07:05:46;;;;;;;20.50;8.53;;;6.10;1.00;;;;;;5051275;28;20454;-75
2020/12/12 07:08:33;;;;;;;19.93;9.20;;;6.20;1.00;;;;;;5034397;28;20450;-76
2020/12/12 07:11:09;;;;;;;21.10;8.60;;;6.20;1.00;;;;;;5069613;28;20298;-76
2020/12/12 07:13:52;;;;;;;21.10;9.10;;;6.20;1.00;;;;;;5053063;28;20948;-76
2020/12/12 07:16:21;;;;;;;24.33;9.27;;;6.20;1.00;;;;;;5058497;28;20490;-75
2020/12/12 07:18:50;;;;;;;19.97;8.53;;;6.10;1.00;;;;;;5069504;28;20385;-76
2020/12/12 07:21:38;;;;;;;23.03;9.30;;;6.10;1.00;;;;;;5065346;28;20991;-76
2020/12/12 07:24:15;;;;;;;21.60;9.70;;;6.10;1.00;;;;;;5092770;28;20412;-77
2020/12/12 07:37:33;;;;;;;16.53;7.77;;;6.00;1.00;;;;;;5079314;28;20243;-79
2020/12/12 07:40:33;;;;;;;18.23;8.30;;;6.10;1.00;;;;;;5073383;28;20386;-79
2020/12/12 07:43:21;;;;;;;18.90;8.47;;;6.10;1.00;;;;;;5073252;28;20397;-76
2020/12/12 07:48:27;;;;;;;16.57;8.67;;;6.20;1.00;;;;;;5078030;28;20523;-76
2020/12/12 07:50:53;;;;;;;26.87;9.13;;;6.20;1.00;;;;;;5076638;28;20386;-76
2020/12/12 07:53:51;;;;;;;17.60;8.57;;;6.20;1.00;;;;;;5076869;28;20389;-76
2020/12/12 08:00:06;;;;;;;20.70;8.53;;;6.30;1.00;;;;;;5096310;28;20411;-76
2020/12/12 08:02:31;;;;;;;19.00;8.47;;;6.30;1.00;;;;;;5094701;28;20467;-77
2020/12/12 08:05:39;;;;;;;20.43;8.43;;;6.30;1.00;;;;;;5096417;28;20925;-76
2020/12/12 08:08:15;;;;;;;17.77;7.87;;;6.40;1.00;;;;;;5096812;28;20518;-77
2020/12/12 08:14:05;;;;;;;21.20;7.95;;;6.40;1.00;;;;;;5094227;28;20414;-76
2020/12/12 08:23:17;;;;;;;20.20;7.80;;;6.50;1.00;;;;;;5082794;28;20420;-77
2020/12/12 08:25:59;;;;;;;17.53;8.57;;;6.50;1.00;;;;;;5077095;28;20425;-78
2020/12/12 08:31:46;;;;;;;16.80;8.10;;;6.50;1.00;;;;;;5075885;28;20432;-77
2020/12/12 08:34:29;;;;;;;23.43;8.90;;;6.50;1.00;;;;;;5076000;28;20421;-77
2020/12/12 08:36:55;;;;;;;18.67;8.03;;;6.60;1.00;;;;;;5076494;28;20178;-79
2020/12/12 08:40:15;;;;;;;19.23;8.40;;;6.60;1.00;;;;;;5076016;28;20460;-76
2020/12/12 08:43:07;;;;;;;20.90;8.70;;;6.60;1.00;;;;;;5088956;28;20251;-79
2020/12/12 08:59:04;;;;;;;17.83;8.20;;;6.60;1.00;;;;;;5075006;28;20411;-76
2020/12/12 09:01:39;;;;;;;24.57;9.40;;;6.60;1.00;;;;;;5093347;28;20423;-74
2020/12/12 09:04:07;;;;;;;19.93;9.00;;;6.60;1.00;;;;;;5087525;28;20424;-73
2020/12/12 09:06:51;;;;;;;22.20;8.70;;;6.60;1.00;;;;;;5094993;28;20464;-74
2020/12/12 09:09:27;;;;;;;21.20;9.10;;;6.70;1.00;;;;;;5095172;28;20416;-73
2020/12/12 09:12:08;;;;;;;19.50;8.17;;;6.70;1.00;;;;;;5095162;28;20460;-73
2020/12/12 09:14:41;;;;;;;20.17;9.90;;;6.70;1.00;;;;;;5095213;28;20376;-73
2020/12/12 09:17:09;;;;;;;21.33;9.27;;;6.70;1.00;;;;;;5095213;28;20404;-74
2020/12/12 09:19:38;;;;;;;21.50;8.80;;;6.70;1.00;;;;;;5094636;28;20529;-74
2020/12/12 09:22:09;;;;;;;17.70;8.60;;;6.80;1.00;;;;;;5074172;28;20402;-74
2020/12/12 09:24:35;;;;;;;20.60;9.37;;;8.30;1.00;;;;;;5074435;28;20422;-74
2020/12/12 09:27:01;;;;;;;17.57;8.60;;;6.90;1.00;;;;;;5074892;28;20460;-74
2020/12/12 09:29:45;;;;;;;24.87;9.70;;;7.00;1.00;;;;;;5077920;28;20447;-75
2020/12/12 09:32:11;;;;;;;22.00;9.23;;;7.00;1.00;;;;;;5095204;28;20872;-76
2020/12/12 09:34:51;;;;;;;19.90;9.60;;;7.00;1.00;;;;;;5079721;28;20420;-76
2020/12/12 09:37:51;;;;;;;37.23;8.90;;;6.90;1.00;;;;;;5074155;28;20638;-77
2020/12/12 09:40:49;;;;;;;19.20;8.73;;;7.00;1.00;;;;;;5079710;28;20459;-76
2020/12/12 09:43:51;;;;;;;18.57;8.90;;;7.10;1.00;;;;;;5080717;28;20396;-76
2020/12/12 09:46:39;;;;;;;19.67;8.93;;;7.10;1.00;;;;;;5094873;28;20380;-76
2020/12/12 09:49:09;;;;;;;25.00;9.13;;;7.00;1.00;;;;;;5094457;28;20396;-76
2020/12/12 09:52:03;;;;;;;19.07;9.33;;;7.00;1.00;;;;;;5082624;28;20522;-76
2020/12/12 09:54:29;;;;;;;19.00;8.87;;;7.10;1.00;;;;;;5077214;28;20400;-74
2020/12/12 09:56:54;;;;;;;21.00;9.30;;;7.20;1.00;;;;;;5076194;28;20405;-74
2020/12/12 09:59:20;;;;;;;15.70;8.37;;;7.30;1.00;;;;;;5074538;28;20167;-74
2020/12/12 10:01:47;;;;;;;18.20;9.20;;;7.30;1.00;;;;;;5073368;28;20193;-74
2020/12/12 10:04:12;;;;;;;16.03;8.17;;;7.30;1.00;;;;;;5076019;28;20210;-74
2020/12/12 10:06:42;;;;;;;21.83;9.50;;;7.40;1.00;;;;;;5093320;28;20468;-74
2020/12/12 10:09:07;;;;;;;18.70;9.13;;;7.40;1.00;;;;;;5088625;28;20174;-74
2020/12/12 10:11:33;;;;;;;15.77;8.30;;;7.40;1.00;;;;;;5073425;28;20385;-74
2020/12/12 10:14:03;;;;;;;21.50;9.27;;;7.40;1.00;;;;;;5094540;28;20249;-74
2020/12/12 10:16:29;;;;;;;19.10;8.80;;;7.40;1.00;;;;;;5094118;28;20628;-73
2020/12/12 10:18:57;;;;;;;21.07;9.70;;;7.40;1.00;;;;;;5094208;28;20487;-74
2020/12/12 10:21:23;;;;;;;18.30;8.43;;;7.40;1.00;;;;;;5094025;28;20212;-74
2020/12/12 10:23:57;;;;;;;20.90;8.20;;;7.40;1.00;;;;;;5076106;28;20831;-74
2020/12/12 10:26:23;;;;;;;20.77;8.93;;;;;;;;;;5079454;28;20709;-73
2020/12/12 10:29:21;;;;;;;20.60;9.30;;;7.50;1.00;;;;;;5096591;28;20513;-76
2020/12/12 10:31:47;;;;;;;20.93;9.40;;;7.60;1.00;;;;;;5089625;28;20436;-76
2020/12/12 10:34:15;;;;;;;19.90;8.70;;;7.60;1.00;;;;;;5086528;28;20448;-76
2020/12/12 10:36:45;;;;;;;19.67;9.73;;;7.60;1.00;;;;;;5089905;28;20527;-76
2020/12/12 10:39:54;;;;;;;13.80;8.07;;;7.60;1.00;;;;;;5093478;28;20906;-77
2020/12/12 10:42:21;;;;;;;18.40;9.00;;;7.60;1.00;;;;;;5091410;28;20512;-75
2020/12/12 10:45:09;;;;;;;23.60;10.00;;;7.60;1.00;;;;;;5113262;28;20426;-77
2020/12/12 10:47:39;;;;;;;23.70;9.43;;;7.60;1.00;;;;;;5077005;28;20445;-77
2020/12/12 10:50:15;;;;;;;17.20;8.83;;;7.70;1.00;;;;;;5082492;28;20451;-77
2020/12/12 10:52:57;;;;;;;19.57;9.97;;;7.70;1.00;;;;;;5082957;28;20407;-78
2020/12/12 10:55:39;;;;;;;20.17;10.00;;;7.80;1.00;;;;;;5088318;28;20409;-77
2020/12/12 10:58:09;;;;;;;19.33;8.40;;;7.80;1.00;;;;;;5081837;28;20425;-76
2020/12/12 11:00:42;;;;;;;20.77;9.27;;;7.80;1.00;;;;;;5083571;28;20421;-75
2020/12/12 11:03:09;;;;;;;20.80;10.13;;;7.90;1.00;;;;;;5075949;28;20461;-75
2020/12/12 11:05:57;;;;;;;19.90;9.87;;;7.80;1.00;;;;;;5090308;28;20489;-77
2020/12/12 11:08:23;;;;;;;18.73;8.77;;;7.80;1.00;;;;;;5093479;28;21119;-77
2020/12/12 11:10:49;;;;;;;22.07;9.20;;;7.90;1.00;;;;;;5093586;28;20401;-74
2020/12/12 11:16:51;;;;;;;16.90;8.53;;;7.90;1.00;;;;;;5093626;28;20697;-77
2020/12/12 11:19:39;;;;;;;18.43;8.80;;;7.80;1.00;;;;;;5093342;28;20389;-77
2020/12/12 11:22:21;;;;;;;18.77;8.00;;;7.80;1.00;;;;;;5097103;28;20805;-77
2020/12/12 11:25:12;;;;;;;19.13;8.47;;;7.80;1.00;;;;;;5097217;28;20784;-77
2020/12/12 11:28:03;;;;;;;20.20;9.50;;;7.80;1.00;;;;;;5087710;28;20982;-77
2020/12/12 11:31:03;;;;;;;16.60;8.23;;;7.80;1.00;;;;;;5077316;28;20480;-81
2020/12/12 11:34:04;;;;;;;20.90;9.37;;;7.80;1.00;;;;;;5076785;28;20469;-78
2020/12/12 11:49:03;;;;;;;20.07;9.20;;;7.90;1.00;;;;;;5077135;28;20466;-78
2020/12/12 11:55:27;;;;;;;16.13;8.87;;;7.90;1.00;;;;;;5076386;28;20430;-79
2020/12/12 12:01:25;;;;;;;17.33;8.80;;;7.90;1.00;;;;;;5076242;28;20763;-79
2020/12/12 12:07:47;;;;;;;16.23;7.63;;;7.90;1.00;;;;;;5091183;28;20494;-78
2020/12/12 12:13:03;;;;;;;19.00;8.83;;;8.10;1.00;;;;;;5096615;28;20522;-79
2020/12/12 12:15:45;;;;;;;20.50;9.27;;;7.90;1.00;;;;;;5095107;28;20400;-74
2020/12/12 12:18:39;;;;;;;20.00;9.73;;;7.90;1.00;;;;;;5085298;28;20413;-75
2020/12/12 12:21:22;;;;;;;20.07;8.93;;;7.90;1.00;;;;;;5075996;28;20447;-75
2020/12/12 12:23:47;;;;;;;18.40;9.13;;;7.90;1.00;;;;;;5077707;28;20478;-74
2020/12/12 12:26:14;;;;;;;18.37;9.00;;;8.00;1.00;;;;;;5075876;28;20908;-75
2020/12/12 12:28:46;;;;;;;20.40;9.13;;;8.00;1.00;;;;;;5079445;28;20605;-73
2020/12/12 12:31:11;;;;;;;20.60;9.00;;;8.00;1.00;;;;;;5088347;28;20919;-73
2020/12/12 12:33:38;;;;;;;19.03;9.13;;;8.00;1.00;;;;;;5099181;28;20429;-73
2020/12/12 12:36:03;;;;;;;19.30;8.80;;;8.00;1.00;;;;;;5098142;28;20432;-73
2020/12/12 12:38:33;;;;;;;20.13;8.43;;;8.00;1.00;;;;;;5075382;28;20432;-73
2020/12/12 12:40:59;;;;;;;15.53;8.30;;;8.00;1.00;;;;;;5087373;28;20504;-74
2020/12/12 12:43:25;;;;;;;17.73;9.17;;;10.00;1.00;;;;;;5095483;28;20411;-73
2020/12/12 12:46:33;;;;;;;19.10;8.90;;;7.90;1.00;;;;;;5086618;28;20194;-78
2020/12/12 12:49:03;;;;;;;18.20;8.87;;;7.90;1.00;;;;;;5080122;28;20420;-78
2020/12/12 12:54:57;;;;;;;17.63;8.80;;;7.90;1.00;;;;;;5077841;28;20442;-78
2020/12/12 12:57:39;;;;;;;19.73;9.03;;;7.90;1.00;;;;;;5087495;28;20847;-79
2020/12/12 13:00:51;;;;;;;17.87;9.03;;;7.90;1.00;;;;;;5103096;28;20534;-78
2020/12/12 13:03:45;;;;;;;22.37;8.83;;;7.90;1.00;;;;;;5095698;28;20498;-78
2020/12/12 13:09:34;;;;;;;16.00;8.30;;;8.00;1.00;;;;;;5093369;28;20482;-78
2020/12/12 13:24:57;;;;;;;22.10;9.23;;;8.00;1.00;;;;;;5074184;28;20457;-78
2020/12/12 13:27:23;;;;;;;20.70;9.37;;;8.00;1.00;;;;;;5082706;28;20582;-78
2020/12/12 13:32:24;;;;;;;19.87;9.47;;;8.10;1.00;;;;;;5080394;28;20179;-78
2020/12/12 13:34:54;;;;;;;20.07;10.03;;;8.00;1.00;;;;;;5082688;28;20421;-78
2020/12/12 13:37:21;;;;;;;16.60;7.90;;;8.00;1.00;;;;;;5080453;28;20464;-78
2020/12/12 13:40:09;;;;;;;21.83;9.57;;;8.10;1.00;;;;;;5074944;28;20506;-78
2020/12/12 13:45:56;;;;;;;24.37;11.20;;;8.00;1.00;;;;;;5077301;28;20429;-73
2020/12/12 13:48:22;;;;;;;20.53;9.67;;;8.00;1.00;;;;;;5083414;28;20810;-74
2020/12/12 13:50:48;;;;;;;21.67;9.53;;;7.90;1.00;;;;;;5080563;28;20549;-73
2020/12/12 13:53:15;;;;;;;27.03;9.97;;;7.90;1.00;;;;;;5080594;28;20183;-73
2020/12/12 13:55:41;;;;;;;22.67;9.67;;;7.90;1.00;;;;;;5075681;28;20785;-74
2020/12/12 13:58:07;;;;;;;26.00;10.00;;;7.90;1.00;;;;;;5078165;28;20429;-73
2020/12/12 14:04:40;;;;;;;25.83;9.80;;;7.80;1.00;;;;;;5087146;28;20672;-78
2020/12/12 14:07:16;;;;;;;21.97;10.50;;;7.90;1.00;;;;;;5092744;28;20447;-78
2020/12/12 14:10:03;;;;;;;20.00;9.77;;;7.80;1.00;;;;;;5080403;28;20449;-78
2020/12/12 14:28:34;;;;;;;20.97;9.90;;;7.80;1.00;;;;;;5073009;28;20893;-78
2020/12/12 14:31:00;;;;;;;21.57;10.20;;;7.80;1.00;;;;;;5087664;28;20501;-73
2020/12/12 14:33:26;;;;;;;20.47;10.13;;;7.80;1.00;;;;;;5079671;28;20436;-73
2020/12/12 14:35:52;;;;;;;24.73;10.30;;;7.80;1.00;;;;;;5086653;28;20440;-73
2020/12/12 14:38:18;;;;;;;24.70;11.60;;;7.80;1.00;;;;;;5077861;28;20436;-73
2020/12/12 14:40:46;;;;;;;25.90;9.93;;;7.80;1.00;;;;;;5087294;28;20530;-73
2020/12/12 14:43:15;;;;;;;32.30;11.13;;;7.80;1.00;;;;;;5083581;28;20182;-73
2020/12/12 14:45:41;;;;;;;27.70;11.67;;;7.70;1.00;;;;;;5086805;28;20555;-73
2020/12/12 14:48:07;;;;;;;29.43;12.77;;;7.70;1.00;;;;;;5076425;28;20547;-73
2020/12/12 14:50:34;;;;;;;22.20;11.80;;;7.70;1.00;;;;;;5077103;28;20196;-73
2020/12/12 14:53:03;;;;;;;24.27;11.40;;;7.60;1.00;;;;;;5073403;28;20421;-73
2020/12/12 14:55:33;;;;;;;26.70;11.47;;;7.60;1.00;;;;;;5082788;28;20474;-73
2020/12/12 14:58:03;;;;;;;25.20;11.50;;;7.60;1.00;;;;;;5082460;28;20452;-74
2020/12/12 15:03:58;;;;;;;30.40;12.40;;;7.70;1.00;;;;;;5077210;28;20503;-79
2020/12/12 15:09:45;;;;;;;23.77;11.57;;;7.70;1.00;;;;;;5084787;28;20497;-78
2020/12/12 15:15:33;;;;;;;26.43;12.17;;;7.60;1.00;;;;;;5081154;28;20966;-77
2020/12/12 15:17:59;;;;;;;24.03;11.57;;;7.60;1.00;;;;;;5084347;28;20440;-74
2020/12/12 15:20:27;;;;;;;24.70;11.50;;;7.60;1.00;;;;;;5087102;28;20207;-73
2020/12/12 15:22:53;;;;;;;34.33;11.67;;;7.60;1.00;;;;;;5079541;28;20183;-74
2020/12/12 15:25:22;;;;;;;25.30;11.00;;;7.60;1.00;;;;;;5086033;28;20446;-74
2020/12/12 15:27:51;;;;;;;22.40;9.93;;;7.60;1.00;;;;;;5085711;28;20240;-74
2020/12/12 15:30:27;;;;;;;24.37;11.90;;;7.60;1.00;;;;;;5087825;28;20447;-73
2020/12/12 15:32:53;;;;;;;22.77;11.17;;;7.60;1.00;;;;;;5092537;28;20514;-74
2020/12/12 15:35:22;;;;;;;25.43;10.10;;;7.60;1.00;;;;;;5083843;28;20515;-73
2020/12/12 15:37:52;;;;;;;24.43;10.90;;;7.60;1.00;;;;;;5081074;28;20187;-74
2020/12/12 15:40:18;;;;;;;31.53;13.47;;;7.60;1.00;;;;;;5083484;28;20429;-73
2020/12/12 15:42:45;;;;;;;29.90;12.67;;;7.50;1.00;;;;;;5079814;28;20436;-73
2020/12/12 15:45:11;;;;;;;30.60;11.43;;;7.50;1.00;;;;;;5085558;28;20831;-74
2020/12/12 15:47:38;;;;;;;26.57;11.90;;;7.50;1.00;;;;;;5090212;28;20453;-74
2020/12/12 15:50:09;;;;;;;23.40;11.00;;;7.50;1.00;;;;;;5091265;28;20207;-74
2020/12/12 15:52:35;;;;;;;25.87;12.67;;;7.50;1.00;;;;;;5084615;28;20427;-74
2020/12/12 15:55:02;;;;;;;25.07;12.20;;;9.00;1.00;;;;;;5076621;28;20382;-73
2020/12/12 15:57:33;;;;;;;27.83;12.17;;;7.50;1.00;;;;;;5079315;28;20471;-74
2020/12/12 16:00:04;;;;;;;24.37;11.53;;;7.50;1.00;;;;;;5085910;28;20489;-73
2020/12/12 16:02:33;;;;;;;23.37;11.00;;;7.50;1.00;;;;;;5088154;28;20512;-73
2020/12/12 16:04:59;;;;;;;22.83;10.57;;;7.50;1.00;;;;;;5095551;28;20498;-74
2020/12/12 16:07:28;;;;;;;22.80;11.40;;;7.50;1.00;;;;;;5079397;28;20460;-73
2020/12/12 16:09:54;;;;;;;26.40;11.37;;;7.50;1.00;;;;;;5075409;28;20215;-73
2020/12/12 16:12:22;;;;;;;26.97;11.33;;;7.50;1.00;;;;;;5084568;28;20465;-73
2020/12/12 16:14:48;;;;;;;26.47;12.37;;;7.60;1.00;;;;;;5080592;28;20185;-73
2020/12/12 16:17:22;;;;;;;27.57;11.17;;;7.50;1.00;;;;;;5084044;28;20441;-78
2020/12/12 16:19:51;;;;;;;26.87;10.63;;;7.50;1.00;;;;;;5077075;28;20452;-78
2020/12/12 16:22:46;;;;;;;27.70;10.50;;;7.60;1.00;;;;;;5081746;28;20946;-78
2020/12/12 16:28:45;;;;;;;25.50;11.43;;;7.50;1.00;;;;;;5075447;28;20456;-78
2020/12/12 16:31:11;;;;;;;26.30;10.43;;;7.50;1.00;;;;;;5077901;28;20501;-78
2020/12/12 16:33:37;;;;;;;27.20;11.03;;;7.50;1.00;;;;;;5077611;28;20919;-78
2020/12/12 16:39:25;;;;;;;26.17;10.50;;;7.50;1.00;;;;;;5076466;28;20668;-78
2020/12/12 16:42:09;;;;;;;22.10;10.93;;;7.50;1.00;;;;;;5079008;28;20512;-78
2020/12/12 16:47:57;;;;;;;20.93;10.27;;;7.40;1.00;;;;;;5082470;28;20603;-73